createdAt,value
2023-03-12T00:01:54.013Z,96724.32
2023-03-12T00:04:27.506Z,96719.19
2023-03-12T00:07:01.214Z,96708.92
2023-03-12T00:09:37.470Z,96709.78
2023-03-12T00:12:11.872Z,96710.61
2023-03-12T00:14:45.264Z,96708.06
2023-03-12T00:17:18.780Z,96705.50
2023-03-12T00:19:55.498Z,96697.80
2023-03-12T00:22:29.270Z,96700.36
2023-03-12T00:25:02.399Z,96660.91
2023-03-12T00:27:35.956Z,96698.64
2023-03-12T00:30:12.127Z,96666.92
2023-03-12T00:32:45.644Z,96660.06
2023-03-12T00:35:19.123Z,96657.49
2023-03-12T00:37:52.399Z,96641.20
2023-03-12T00:40:25.741Z,96636.89
2023-03-12T00:42:59.455Z,96642.05
2023-03-12T00:45:32.818Z,96629.17
2023-03-12T00:48:06.545Z,96607.73
2023-03-12T00:50:40.090Z,96608.58
2023-03-12T00:53:13.430Z,96618.88
2023-03-12T00:55:47.076Z,96608.55
2023-03-12T00:58:20.539Z,96602.55
2023-03-12T01:00:54.063Z,96595.70
2023-03-12T01:03:27.659Z,96587.10
2023-03-12T01:06:01.645Z,96568.22
2023-03-12T01:08:35.060Z,96581.94
2023-03-12T01:11:08.804Z,96575.09
2023-03-12T01:13:42.203Z,96575.08
2023-03-12T01:16:15.656Z,96552.74
2023-03-12T01:18:49.102Z,96539.84
2023-03-12T01:21:22.632Z,96561.30
2023-03-12T01:23:56.663Z,96536.41
2023-03-12T01:26:30.355Z,96532.96
2023-03-12T01:29:03.775Z,96551.84
2023-03-12T01:31:37.497Z,96536.38
2023-03-12T01:34:13.771Z,96518.34
2023-03-12T01:36:47.878Z,96524.36
2023-03-12T01:39:21.294Z,96521.78
2023-03-12T01:41:54.537Z,96529.49
2023-03-12T01:44:28.206Z,96520.05
2023-03-12T01:47:01.687Z,96508.00
2023-03-12T01:49:36.331Z,96504.58
2023-03-12T01:52:12.223Z,96520.00
2023-03-12T01:54:49.507Z,96490.78
2023-03-12T01:57:26.050Z,96499.38
2023-03-12T02:00:04.646Z,96483.04
2023-03-12T02:02:40.473Z,96495.03
2023-03-12T02:05:17.895Z,96484.73
2023-03-12T02:07:51.911Z,96470.11
2023-03-12T02:10:26.153Z,96475.27
2023-03-12T02:12:59.721Z,96470.08
2023-03-12T02:15:33.656Z,96471.80
2023-03-12T02:18:08.745Z,96455.45
2023-03-12T02:20:45.618Z,96461.42
2023-03-12T02:23:22.654Z,96457.98
2023-03-12T02:25:57.918Z,96438.17
2023-03-12T02:28:33.854Z,96447.63
2023-03-12T02:31:08.205Z,96424.42
2023-03-12T02:33:41.956Z,96448.44
2023-03-12T02:36:15.724Z,96433.80
2023-03-12T02:38:50.973Z,96438.07
2023-03-12T02:41:27.223Z,96422.59
2023-03-12T02:44:04.984Z,96436.27
2023-03-12T02:46:42.105Z,96428.53
2023-03-12T02:49:17.007Z,96416.46
2023-03-12T02:51:50.986Z,96407.84
2023-03-12T02:54:25.714Z,96408.72
2023-03-12T02:57:00.312Z,96390.61
2023-03-12T02:59:34.575Z,96394.90
2023-03-12T03:02:11.580Z,96396.58
2023-03-12T03:04:45.173Z,96366.48
2023-03-12T03:07:18.726Z,96371.61
2023-03-12T03:09:52.208Z,96358.70
2023-03-12T03:12:25.667Z,96361.28
2023-03-12T03:14:59.795Z,96364.59
2023-03-12T03:17:34.104Z,96357.75
2023-03-12T03:20:11.510Z,96358.59
2023-03-12T03:22:45.090Z,96347.38
2023-03-12T03:25:20.468Z,96342.20
2023-03-12T03:27:53.972Z,96330.13
2023-03-12T03:30:27.504Z,96326.66
2023-03-12T03:33:00.807Z,96312.86
2023-03-12T03:35:34.952Z,96317.16
2023-03-12T03:38:08.644Z,96323.12
2023-03-12T03:40:42.032Z,96310.22
2023-03-12T03:43:15.931Z,96305.88
2023-03-12T03:45:52.247Z,96299.88
2023-03-12T03:48:26.033Z,96295.55
2023-03-12T03:51:02.317Z,96298.08
2023-03-12T03:53:37.213Z,96276.55
2023-03-12T03:56:13.221Z,96292.79
2023-03-12T03:58:48.721Z,96266.14
2023-03-12T04:01:22.950Z,96280.70
2023-03-12T04:03:56.935Z,96262.61
2023-03-12T04:06:30.879Z,96260.84
2023-03-12T04:09:04.695Z,96262.53
2023-03-12T04:11:39.042Z,96252.17
2023-03-12T04:14:12.960Z,96249.56
2023-03-12T04:16:47.326Z,96229.79
2023-03-12T04:19:32.637Z,96245.19
2023-03-12T04:22:40.810Z,96223.64
2023-03-12T04:26:08.608Z,96224.48
2023-03-12T04:29:11.500Z,96214.15
2023-03-12T04:31:51.548Z,96228.80
2023-03-12T04:34:25.151Z,96215.05
2023-03-12T04:36:58.636Z,96207.27
2023-03-12T04:39:31.957Z,96201.21
2023-03-12T04:42:05.663Z,96201.18
2023-03-12T04:44:41.152Z,96195.08
2023-03-12T04:47:14.981Z,96170.94
2023-03-12T04:49:48.700Z,96197.57
2023-03-12T04:52:22.043Z,96187.21
2023-03-12T04:54:55.803Z,96181.98
2023-03-12T04:57:29.529Z,96198.34
2023-03-12T05:00:03.547Z,96185.43
2023-03-12T05:02:37.823Z,96183.66
2023-03-12T05:05:13.522Z,96185.30
2023-03-12T05:07:47.747Z,96182.69
2023-03-12T05:10:21.731Z,96173.23
2023-03-12T05:12:55.346Z,96185.17
2023-03-12T05:15:29.426Z,96171.34
2023-03-12T05:18:03.058Z,96169.67
2023-03-12T05:20:36.574Z,96164.44
2023-03-12T05:23:10.401Z,96153.09
2023-03-12T05:25:44.167Z,96158.25
2023-03-12T05:28:17.499Z,96141.84
2023-03-12T05:30:51.015Z,96134.05
2023-03-12T05:33:24.223Z,96128.81
2023-03-12T05:35:58.214Z,96134.82
2023-03-12T05:38:32.137Z,96122.73
2023-03-12T05:41:06.027Z,96131.22
2023-03-12T05:43:40.949Z,96133.83
2023-03-12T05:46:14.685Z,96119.97
2023-03-12T05:48:48.623Z,96125.97
2023-03-12T05:51:23.390Z,96117.27
2023-03-12T05:53:56.830Z,96113.77
2023-03-12T05:56:31.270Z,96101.59
2023-03-12T05:59:05.214Z,96112.73
2023-03-12T06:01:39.254Z,96107.56
2023-03-12T06:04:12.711Z,96103.98
2023-03-12T06:06:46.050Z,96111.66
2023-03-12T06:09:19.364Z,96095.23
2023-03-12T06:11:53.099Z,96103.78
2023-03-12T06:14:27.036Z,96093.31
2023-03-12T06:17:00.924Z,96095.94
2023-03-12T06:19:34.864Z,96093.11
2023-03-12T06:22:08.770Z,96093.02
2023-03-12T06:24:42.707Z,96092.05
2023-03-12T06:27:16.272Z,96082.59
2023-03-12T06:29:50.027Z,96093.77
2023-03-12T06:32:26.216Z,96084.25
2023-03-12T06:35:02.492Z,96094.52
2023-03-12T06:37:35.801Z,96078.81
2023-03-12T06:44:06.626Z,96087.28
2023-03-12T06:46:42.718Z,96069.77
2023-03-12T06:49:17.049Z,96074.11
2023-03-12T06:51:50.333Z,96083.68
2023-03-12T06:54:23.657Z,96066.45
2023-03-12T06:56:57.108Z,96074.16
2023-03-12T06:59:30.487Z,96066.34
2023-03-12T07:02:03.957Z,96065.48
2023-03-12T07:04:37.413Z,96062.83
2023-03-12T07:07:12.560Z,96059.42
2023-03-12T07:09:45.904Z,96035.25
2023-03-12T07:12:19.269Z,96043.84
2023-03-12T07:14:52.700Z,96029.92
2023-03-12T07:17:26.455Z,96029.83
2023-03-12T07:19:59.759Z,96030.70
2023-03-12T07:22:34.447Z,96026.36
2023-03-12T07:25:09.966Z,96033.25
2023-03-12T07:27:43.371Z,96027.09
2023-03-12T07:30:18.083Z,96027.94
2023-03-12T07:32:51.544Z,96014.06
2023-03-12T07:35:25.070Z,96014.98
2023-03-12T07:37:58.647Z,96005.50
2023-03-12T07:40:33.635Z,95998.47
2023-03-12T07:43:09.258Z,96002.73
2023-03-12T07:45:43.223Z,95994.91
2023-03-12T07:48:20.093Z,95998.08
2023-03-12T07:50:53.289Z,95993.04
2023-03-12T07:53:26.991Z,96000.66
2023-03-12T07:56:00.917Z,95998.95
2023-03-12T07:58:36.751Z,95981.70
